sensor_id;sensor_type;location;lat;lon;timestamp;P1;durP1;ratioP1;P2;durP2;ratioP2
15526;SDS011;7865;50.918;4.510;2023-05-07T00:00:03;12.85;;;6.10;;
15526;SDS011;7865;50.918;4.510;2023-05-07T00:05:10;7.93;;;5.53;;
15526;SDS011;7865;50.918;4.510;2023-05-07T00:10:13;9.60;;;5.87;;
15526;SDS011;7865;50.918;4.510;2023-05-07T00:15:14;9.97;;;6.07;;
15526;SDS011;7865;50.918;4.510;2023-05-07T00:20:16;8.43;;;5.53;;
15526;SDS011;7865;50.918;4.510;2023-05-07T00:25:18;9.80;;;6.00;;
15526;SDS011;7865;50.918;4.510;2023-05-07T00:30:20;8.77;;;5.87;;
15526;SDS011;7865;50.918;4.510;2023-05-07T00:35:22;8.83;;;5.77;;
15526;SDS011;7865;50.918;4.510;2023-05-07T00:40:23;9.47;;;6.50;;
15526;SDS011;7865;50.918;4.510;2023-05-07T00:45:28;11.57;;;6.13;;
15526;SDS011;7865;50.918;4.510;2023-05-07T00:50:30;15.23;;;5.97;;
15526;SDS011;7865;50.918;4.510;2023-05-07T00:55:33;10.77;;;6.67;;
15526;SDS011;7865;50.918;4.510;2023-05-07T01:00:36;11.73;;;7.20;;
15526;SDS011;7865;50.918;4.510;2023-05-07T01:05:37;10.67;;;7.37;;
15526;SDS011;7865;50.918;4.510;2023-05-07T01:10:40;10.43;;;6.90;;
15526;SDS011;7865;50.918;4.510;2023-05-07T01:15:43;9.57;;;7.20;;
15526;SDS011;7865;50.918;4.510;2023-05-07T01:20:45;8.77;;;6.53;;
15526;SDS011;7865;50.918;4.510;2023-05-07T01:25:53;11.63;;;7.43;;
15526;SDS011;7865;50.918;4.510;2023-05-07T01:31:01;10.07;;;7.40;;
15526;SDS011;7865;50.918;4.510;2023-05-07T01:36:05;11.43;;;7.43;;
15526;SDS011;7865;50.918;4.510;2023-05-07T01:41:08;10.20;;;7.67;;
15526;SDS011;7865;50.918;4.510;2023-05-07T01:46:10;14.37;;;7.50;;
15526;SDS011;7865;50.918;4.510;2023-05-07T01:51:12;10.90;;;7.73;;
15526;SDS011;7865;50.918;4.510;2023-05-07T01:56:14;13.20;;;8.53;;
15526;SDS011;7865;50.918;4.510;2023-05-07T02:01:17;15.57;;;8.10;;
15526;SDS011;7865;50.918;4.510;2023-05-07T02:06:19;11.73;;;7.50;;
15526;SDS011;7865;50.918;4.510;2023-05-07T02:11:21;10.37;;;8.43;;
15526;SDS011;7865;50.918;4.510;2023-05-07T02:16:22;13.00;;;9.23;;
15526;SDS011;7865;50.918;4.510;2023-05-07T02:21:25;15.40;;;8.50;;
15526;SDS011;7865;50.918;4.510;2023-05-07T02:26:28;13.47;;;8.67;;
15526;SDS011;7865;50.918;4.510;2023-05-07T02:31:30;11.63;;;8.83;;
15526;SDS011;7865;50.918;4.510;2023-05-07T02:36:31;12.23;;;8.30;;
15526;SDS011;7865;50.918;4.510;2023-05-07T02:41:41;13.70;;;9.90;;
15526;SDS011;7865;50.918;4.510;2023-05-07T02:46:42;13.33;;;8.83;;
15526;SDS011;7865;50.918;4.510;2023-05-07T02:51:46;10.93;;;8.20;;
15526;SDS011;7865;50.918;4.510;2023-05-07T02:56:53;11.23;;;8.60;;
15526;SDS011;7865;50.918;4.510;2023-05-07T03:01:55;9.30;;;8.30;;
15526;SDS011;7865;50.918;4.510;2023-05-07T03:06:57;16.57;;;9.83;;
15526;SDS011;7865;50.918;4.510;2023-05-07T03:11:58;12.83;;;9.30;;
15526;SDS011;7865;50.918;4.510;2023-05-07T03:16:59;16.17;;;9.80;;
15526;SDS011;7865;50.918;4.510;2023-05-07T03:22:01;12.97;;;9.50;;
15526;SDS011;7865;50.918;4.510;2023-05-07T03:27:02;14.27;;;9.77;;
15526;SDS011;7865;50.918;4.510;2023-05-07T03:32:04;10.40;;;9.27;;
15526;SDS011;7865;50.918;4.510;2023-05-07T03:37:07;14.33;;;8.80;;
15526;SDS011;7865;50.918;4.510;2023-05-07T03:42:08;16.33;;;8.80;;
15526;SDS011;7865;50.918;4.510;2023-05-07T03:47:10;13.63;;;9.40;;
15526;SDS011;7865;50.918;4.510;2023-05-07T03:52:12;13.67;;;9.33;;
15526;SDS011;7865;50.918;4.510;2023-05-07T03:57:14;12.73;;;9.93;;
15526;SDS011;7865;50.918;4.510;2023-05-07T04:02:16;14.43;;;10.97;;
15526;SDS011;7865;50.918;4.510;2023-05-07T04:07:18;11.33;;;9.43;;
15526;SDS011;7865;50.918;4.510;2023-05-07T04:12:23;12.37;;;10.37;;
15526;SDS011;7865;50.918;4.510;2023-05-07T04:17:25;12.13;;;10.17;;
15526;SDS011;7865;50.918;4.510;2023-05-07T04:22:27;12.37;;;10.50;;
15526;SDS011;7865;50.918;4.510;2023-05-07T04:27:29;12.00;;;10.20;;
15526;SDS011;7865;50.918;4.510;2023-05-07T04:32:30;15.13;;;10.87;;
15526;SDS011;7865;50.918;4.510;2023-05-07T04:37:32;17.40;;;12.37;;
15526;SDS011;7865;50.918;4.510;2023-05-07T04:42:34;14.93;;;11.67;;
15526;SDS011;7865;50.918;4.510;2023-05-07T04:47:37;14.07;;;10.73;;
15526;SDS011;7865;50.918;4.510;2023-05-07T04:52:39;14.10;;;11.40;;
15526;SDS011;7865;50.918;4.510;2023-05-07T04:57:41;15.60;;;11.67;;
15526;SDS011;7865;50.918;4.510;2023-05-07T05:02:45;14.30;;;12.80;;
15526;SDS011;7865;50.918;4.510;2023-05-07T05:07:50;18.87;;;13.70;;
15526;SDS011;7865;50.918;4.510;2023-05-07T05:12:53;14.50;;;13.00;;
15526;SDS011;7865;50.918;4.510;2023-05-07T05:17:56;14.90;;;11.77;;
15526;SDS011;7865;50.918;4.510;2023-05-07T05:22:58;16.50;;;11.70;;
15526;SDS011;7865;50.918;4.510;2023-05-07T05:28:00;17.00;;;10.83;;
15526;SDS011;7865;50.918;4.510;2023-05-07T05:33:03;19.47;;;12.00;;
15526;SDS011;7865;50.918;4.510;2023-05-07T05:38:04;15.02;;;10.77;;
15526;SDS011;7865;50.918;4.510;2023-05-07T05:43:07;16.13;;;10.45;;
15526;SDS011;7865;50.918;4.510;2023-05-07T05:48:11;16.43;;;11.40;;
15526;SDS011;7865;50.918;4.510;2023-05-07T05:53:12;19.30;;;11.90;;
15526;SDS011;7865;50.918;4.510;2023-05-07T05:58:14;16.38;;;11.57;;
15526;SDS011;7865;50.918;4.510;2023-05-07T06:03:22;11.70;;;9.45;;
15526;SDS011;7865;50.918;4.510;2023-05-07T06:08:24;12.85;;;9.70;;
15526;SDS011;7865;50.918;4.510;2023-05-07T06:13:25;15.70;;;8.93;;
15526;SDS011;7865;50.918;4.510;2023-05-07T06:18:27;11.85;;;9.68;;
15526;SDS011;7865;50.918;4.510;2023-05-07T06:23:29;10.20;;;8.77;;
15526;SDS011;7865;50.918;4.510;2023-05-07T06:28:31;11.50;;;8.57;;
15526;SDS011;7865;50.918;4.510;2023-05-07T06:33:39;15.23;;;7.80;;
15526;SDS011;7865;50.918;4.510;2023-05-07T06:38:41;11.13;;;6.60;;
15526;SDS011;7865;50.918;4.510;2023-05-07T06:43:42;11.13;;;7.13;;
15526;SDS011;7865;50.918;4.510;2023-05-07T06:49:02;12.13;;;8.45;;
15526;SDS011;7865;50.918;4.510;2023-05-07T06:54:04;11.80;;;7.68;;
15526;SDS011;7865;50.918;4.510;2023-05-07T06:59:07;13.90;;;7.25;;
15526;SDS011;7865;50.918;4.510;2023-05-07T07:04:13;11.93;;;6.35;;
15526;SDS011;7865;50.918;4.510;2023-05-07T07:09:17;10.25;;;4.78;;
15526;SDS011;7865;50.918;4.510;2023-05-07T07:14:18;12.02;;;4.95;;
15526;SDS011;7865;50.918;4.510;2023-05-07T07:19:23;9.93;;;4.70;;
15526;SDS011;7865;50.918;4.510;2023-05-07T07:24:28;13.18;;;5.07;;
15526;SDS011;7865;50.918;4.510;2023-05-07T07:29:33;10.43;;;4.55;;
15526;SDS011;7865;50.918;4.510;2023-05-07T07:34:35;10.65;;;4.85;;
15526;SDS011;7865;50.918;4.510;2023-05-07T07:39:37;11.45;;;4.35;;
15526;SDS011;7865;50.918;4.510;2023-05-07T07:44:40;9.88;;;4.82;;
15526;SDS011;7865;50.918;4.510;2023-05-07T07:49:44;12.10;;;4.85;;
15526;SDS011;7865;50.918;4.510;2023-05-07T07:54:45;10.20;;;5.07;;
15526;SDS011;7865;50.918;4.510;2023-05-07T07:59:46;12.40;;;5.28;;
15526;SDS011;7865;50.918;4.510;2023-05-07T08:04:49;10.07;;;4.60;;
15526;SDS011;7865;50.918;4.510;2023-05-07T08:09:52;9.70;;;4.55;;
15526;SDS011;7865;50.918;4.510;2023-05-07T08:14:57;10.65;;;4.47;;
15526;SDS011;7865;50.918;4.510;2023-05-07T08:19:58;8.65;;;4.05;;
15526;SDS011;7865;50.918;4.510;2023-05-07T08:25:00;9.38;;;4.50;;
15526;SDS011;7865;50.918;4.510;2023-05-07T08:30:03;11.30;;;4.47;;
15526;SDS011;7865;50.918;4.510;2023-05-07T08:35:05;6.53;;;3.67;;
15526;SDS011;7865;50.918;4.510;2023-05-07T08:40:07;10.30;;;3.40;;
15526;SDS011;7865;50.918;4.510;2023-05-07T08:45:13;7.85;;;3.33;;
15526;SDS011;7865;50.918;4.510;2023-05-07T08:50:18;6.90;;;3.80;;
15526;SDS011;7865;50.918;4.510;2023-05-07T08:55:23;9.63;;;3.80;;
15526;SDS011;7865;50.918;4.510;2023-05-07T09:00:25;8.25;;;4.88;;
15526;SDS011;7865;50.918;4.510;2023-05-07T09:05:29;5.88;;;4.20;;
15526;SDS011;7865;50.918;4.510;2023-05-07T09:10:32;6.93;;;3.67;;
15526;SDS011;7865;50.918;4.510;2023-05-07T09:15:35;7.22;;;3.78;;
15526;SDS011;7865;50.918;4.510;2023-05-07T09:20:37;8.13;;;3.90;;
15526;SDS011;7865;50.918;4.510;2023-05-07T09:25:40;8.10;;;4.20;;
15526;SDS011;7865;50.918;4.510;2023-05-07T09:30:48;7.82;;;4.28;;
15526;SDS011;7865;50.918;4.510;2023-05-07T09:35:51;6.95;;;4.25;;
15526;SDS011;7865;50.918;4.510;2023-05-07T09:46:16;6.82;;;3.58;;
15526;SDS011;7865;50.918;4.510;2023-05-07T09:51:29;9.68;;;4.13;;
15526;SDS011;7865;50.918;4.510;2023-05-07T09:56:53;5.95;;;3.45;;
15526;SDS011;7865;50.918;4.510;2023-05-07T10:01:59;8.15;;;3.90;;
15526;SDS011;7865;50.918;4.510;2023-05-07T10:07:04;7.38;;;3.58;;
15526;SDS011;7865;50.918;4.510;2023-05-07T10:12:07;7.28;;;3.88;;
15526;SDS011;7865;50.918;4.510;2023-05-07T10:17:11;7.22;;;4.30;;
15526;SDS011;7865;50.918;4.510;2023-05-07T10:22:15;6.15;;;3.63;;
15526;SDS011;7865;50.918;4.510;2023-05-07T10:27:20;8.52;;;3.83;;
15526;SDS011;7865;50.918;4.510;2023-05-07T10:32:35;7.65;;;3.85;;
15526;SDS011;7865;50.918;4.510;2023-05-07T10:37:48;9.30;;;4.15;;
15526;SDS011;7865;50.918;4.510;2023-05-07T10:42:57;8.50;;;3.33;;
15526;SDS011;7865;50.918;4.510;2023-05-07T10:48:13;9.48;;;4.28;;
15526;SDS011;7865;50.918;4.510;2023-05-07T10:53:25;7.55;;;3.83;;
15526;SDS011;7865;50.918;4.510;2023-05-07T10:58:42;9.43;;;4.32;;
15526;SDS011;7865;50.918;4.510;2023-05-07T11:10:02;6.60;;;2.95;;
15526;SDS011;7865;50.918;4.510;2023-05-07T11:15:13;4.60;;;2.30;;
15526;SDS011;7865;50.918;4.510;2023-05-07T11:20:18;6.70;;;2.72;;
15526;SDS011;7865;50.918;4.510;2023-05-07T11:25:25;6.05;;;2.42;;
15526;SDS011;7865;50.918;4.510;2023-05-07T11:30:33;3.78;;;2.10;;
15526;SDS011;7865;50.918;4.510;2023-05-07T11:35:36;5.07;;;2.65;;
15526;SDS011;7865;50.918;4.510;2023-05-07T11:40:53;4.57;;;2.33;;
15526;SDS011;7865;50.918;4.510;2023-05-07T11:46:10;7.75;;;3.10;;
15526;SDS011;7865;50.918;4.510;2023-05-07T11:51:12;4.03;;;2.80;;
15526;SDS011;7865;50.918;4.510;2023-05-07T11:56:19;6.13;;;2.50;;
15526;SDS011;7865;50.918;4.510;2023-05-07T12:01:21;4.63;;;2.53;;
15526;SDS011;7865;50.918;4.510;2023-05-07T12:06:22;5.13;;;2.53;;
15526;SDS011;7865;50.918;4.510;2023-05-07T12:11:24;5.70;;;2.28;;
15526;SDS011;7865;50.918;4.510;2023-05-07T12:16:26;3.33;;;2.67;;
15526;SDS011;7865;50.918;4.510;2023-05-07T12:21:29;4.95;;;1.88;;
15526;SDS011;7865;50.918;4.510;2023-05-07T12:26:30;6.28;;;2.00;;
15526;SDS011;7865;50.918;4.510;2023-05-07T12:31:32;3.97;;;1.63;;
15526;SDS011;7865;50.918;4.510;2023-05-07T12:36:37;5.00;;;2.03;;
15526;SDS011;7865;50.918;4.510;2023-05-07T12:41:53;6.15;;;1.90;;
15526;SDS011;7865;50.918;4.510;2023-05-07T12:46:56;6.03;;;2.10;;
15526;SDS011;7865;50.918;4.510;2023-05-07T12:51:57;5.63;;;2.20;;
15526;SDS011;7865;50.918;4.510;2023-05-07T12:57:03;4.63;;;1.77;;
15526;SDS011;7865;50.918;4.510;2023-05-07T13:02:07;4.40;;;1.90;;
15526;SDS011;7865;50.918;4.510;2023-05-07T13:07:11;4.25;;;2.78;;
15526;SDS011;7865;50.918;4.510;2023-05-07T13:12:12;5.32;;;3.45;;
15526;SDS011;7865;50.918;4.510;2023-05-07T13:17:14;5.03;;;2.70;;
15526;SDS011;7865;50.918;4.510;2023-05-07T13:22:16;4.25;;;2.60;;
15526;SDS011;7865;50.918;4.510;2023-05-07T13:27:17;3.30;;;2.25;;
15526;SDS011;7865;50.918;4.510;2023-05-07T13:32:19;4.70;;;2.03;;
15526;SDS011;7865;50.918;4.510;2023-05-07T13:37:21;4.25;;;2.63;;
15526;SDS011;7865;50.918;4.510;2023-05-07T13:42:22;5.10;;;2.40;;
15526;SDS011;7865;50.918;4.510;2023-05-07T13:47:24;6.32;;;3.22;;
15526;SDS011;7865;50.918;4.510;2023-05-07T13:52:25;3.22;;;2.00;;
15526;SDS011;7865;50.918;4.510;2023-05-07T13:57:27;3.75;;;2.33;;
15526;SDS011;7865;50.918;4.510;2023-05-07T14:02:28;3.63;;;2.63;;
15526;SDS011;7865;50.918;4.510;2023-05-07T14:07:30;3.97;;;2.50;;
15526;SDS011;7865;50.918;4.510;2023-05-07T14:12:32;6.10;;;3.60;;
15526;SDS011;7865;50.918;4.510;2023-05-07T14:17:34;3.88;;;3.22;;
15526;SDS011;7865;50.918;4.510;2023-05-07T14:22:35;6.00;;;3.40;;
15526;SDS011;7865;50.918;4.510;2023-05-07T14:27:37;4.90;;;3.42;;
15526;SDS011;7865;50.918;4.510;2023-05-07T14:32:39;4.55;;;4.15;;
15526;SDS011;7865;50.918;4.510;2023-05-07T14:37:40;6.57;;;3.08;;
15526;SDS011;7865;50.918;4.510;2023-05-07T14:42:41;4.93;;;3.95;;
15526;SDS011;7865;50.918;4.510;2023-05-07T14:47:43;5.13;;;3.90;;
15526;SDS011;7865;50.918;4.510;2023-05-07T14:52:44;5.88;;;4.35;;
15526;SDS011;7865;50.918;4.510;2023-05-07T14:57:45;5.85;;;4.57;;
15526;SDS011;7865;50.918;4.510;2023-05-07T15:02:47;5.22;;;4.15;;
15526;SDS011;7865;50.918;4.510;2023-05-07T15:07:48;5.97;;;5.40;;
15526;SDS011;7865;50.918;4.510;2023-05-07T15:12:49;6.43;;;5.28;;
15526;SDS011;7865;50.918;4.510;2023-05-07T15:17:51;7.07;;;6.38;;
15526;SDS011;7865;50.918;4.510;2023-05-07T15:22:53;7.05;;;6.45;;
15526;SDS011;7865;50.918;4.510;2023-05-07T15:27:54;6.00;;;5.50;;
15526;SDS011;7865;50.918;4.510;2023-05-07T15:32:56;6.53;;;5.90;;
15526;SDS011;7865;50.918;4.510;2023-05-07T15:37:58;7.85;;;6.45;;
15526;SDS011;7865;50.918;4.510;2023-05-07T15:42:59;6.80;;;6.20;;
15526;SDS011;7865;50.918;4.510;2023-05-07T15:48:01;6.55;;;5.95;;
15526;SDS011;7865;50.918;4.510;2023-05-07T15:53:03;6.70;;;6.07;;
15526;SDS011;7865;50.918;4.510;2023-05-07T15:58:05;6.90;;;6.20;;
15526;SDS011;7865;50.918;4.510;2023-05-07T16:03:06;8.40;;;7.35;;
15526;SDS011;7865;50.918;4.510;2023-05-07T16:08:08;8.52;;;7.63;;
15526;SDS011;7865;50.918;4.510;2023-05-07T16:13:10;9.32;;;8.23;;
15526;SDS011;7865;50.918;4.510;2023-05-07T16:18:11;10.57;;;8.70;;
15526;SDS011;7865;50.918;4.510;2023-05-07T16:23:16;10.18;;;9.23;;
15526;SDS011;7865;50.918;4.510;2023-05-07T16:28:18;10.18;;;9.18;;
15526;SDS011;7865;50.918;4.510;2023-05-07T16:33:19;10.18;;;9.18;;
15526;SDS011;7865;50.918;4.510;2023-05-07T16:38:21;9.23;;;8.32;;
15526;SDS011;7865;50.918;4.510;2023-05-07T16:43:22;8.05;;;7.28;;
15526;SDS011;7865;50.918;4.510;2023-05-07T16:48:24;8.48;;;7.68;;
15526;SDS011;7865;50.918;4.510;2023-05-07T16:53:25;8.30;;;7.43;;
15526;SDS011;7865;50.918;4.510;2023-05-07T16:58:27;8.18;;;7.38;;
15526;SDS011;7865;50.918;4.510;2023-05-07T17:03:28;8.00;;;7.20;;
15526;SDS011;7865;50.918;4.510;2023-05-07T17:08:31;7.93;;;6.65;;
15526;SDS011;7865;50.918;4.510;2023-05-07T17:13:33;7.95;;;6.18;;
15526;SDS011;7865;50.918;4.510;2023-05-07T17:18:34;10.25;;;6.97;;
15526;SDS011;7865;50.918;4.510;2023-05-07T17:23:36;8.05;;;6.40;;
15526;SDS011;7865;50.918;4.510;2023-05-07T17:28:38;7.20;;;6.47;;
15526;SDS011;7865;50.918;4.510;2023-05-07T17:33:39;7.15;;;6.45;;
15526;SDS011;7865;50.918;4.510;2023-05-07T17:38:41;8.75;;;5.15;;
15526;SDS011;7865;50.918;4.510;2023-05-07T17:43:42;7.68;;;6.13;;
15526;SDS011;7865;50.918;4.510;2023-05-07T17:48:43;6.90;;;6.13;;
15526;SDS011;7865;50.918;4.510;2023-05-07T17:53:45;7.03;;;6.38;;
15526;SDS011;7865;50.918;4.510;2023-05-07T17:58:46;7.25;;;6.55;;
15526;SDS011;7865;50.918;4.510;2023-05-07T18:04:00;8.10;;;7.07;;
15526;SDS011;7865;50.918;4.510;2023-05-07T18:09:02;7.85;;;7.15;;
15526;SDS011;7865;50.918;4.510;2023-05-07T18:14:04;8.07;;;7.28;;
15526;SDS011;7865;50.918;4.510;2023-05-07T18:19:05;8.27;;;7.57;;
15526;SDS011;7865;50.918;4.510;2023-05-07T18:24:07;9.32;;;8.38;;
15526;SDS011;7865;50.918;4.510;2023-05-07T18:29:09;8.48;;;7.68;;
15526;SDS011;7865;50.918;4.510;2023-05-07T18:34:11;9.25;;;8.23;;
15526;SDS011;7865;50.918;4.510;2023-05-07T18:39:14;7.35;;;6.65;;
15526;SDS011;7865;50.918;4.510;2023-05-07T18:44:15;7.30;;;6.53;;
15526;SDS011;7865;50.918;4.510;2023-05-07T18:49:16;6.85;;;6.15;;
15526;SDS011;7865;50.918;4.510;2023-05-07T18:54:18;7.53;;;6.43;;
15526;SDS011;7865;50.918;4.510;2023-05-07T18:59:19;11.00;;;6.45;;
15526;SDS011;7865;50.918;4.510;2023-05-07T19:04:20;6.90;;;6.28;;
15526;SDS011;7865;50.918;4.510;2023-05-07T19:09:22;8.20;;;7.25;;
15526;SDS011;7865;50.918;4.510;2023-05-07T19:14:23;7.95;;;7.10;;
15526;SDS011;7865;50.918;4.510;2023-05-07T19:19:25;8.38;;;7.43;;
15526;SDS011;7865;50.918;4.510;2023-05-07T19:24:27;8.60;;;7.80;;
15526;SDS011;7865;50.918;4.510;2023-05-07T19:29:29;8.55;;;7.72;;
15526;SDS011;7865;50.918;4.510;2023-05-07T19:34:31;9.40;;;8.07;;
15526;SDS011;7865;50.918;4.510;2023-05-07T19:39:32;9.20;;;8.35;;
15526;SDS011;7865;50.918;4.510;2023-05-07T19:44:33;9.45;;;8.48;;
15526;SDS011;7865;50.918;4.510;2023-05-07T19:49:35;11.05;;;8.88;;
15526;SDS011;7865;50.918;4.510;2023-05-07T19:54:36;10.73;;;9.52;;
15526;SDS011;7865;50.918;4.510;2023-05-07T19:59:38;11.00;;;9.90;;
15526;SDS011;7865;50.918;4.510;2023-05-07T20:04:40;12.27;;;8.93;;
15526;SDS011;7865;50.918;4.510;2023-05-07T20:09:41;10.18;;;7.60;;
15526;SDS011;7865;50.918;4.510;2023-05-07T20:14:42;9.20;;;8.15;;
15526;SDS011;7865;50.918;4.510;2023-05-07T20:19:43;11.02;;;8.88;;
15526;SDS011;7865;50.918;4.510;2023-05-07T20:24:45;11.85;;;7.47;;
15526;SDS011;7865;50.918;4.510;2023-05-07T20:29:46;9.07;;;7.28;;
15526;SDS011;7865;50.918;4.510;2023-05-07T20:34:48;11.88;;;7.63;;
15526;SDS011;7865;50.918;4.510;2023-05-07T20:39:49;12.50;;;8.82;;
15526;SDS011;7865;50.918;4.510;2023-05-07T20:44:50;10.85;;;8.15;;
15526;SDS011;7865;50.918;4.510;2023-05-07T20:49:52;13.80;;;9.88;;
15526;SDS011;7865;50.918;4.510;2023-05-07T20:54:54;14.38;;;10.45;;
15526;SDS011;7865;50.918;4.510;2023-05-07T20:59:56;12.85;;;10.15;;
15526;SDS011;7865;50.918;4.510;2023-05-07T21:04:57;11.50;;;9.32;;
15526;SDS011;7865;50.918;4.510;2023-05-07T21:09:59;13.18;;;9.73;;
15526;SDS011;7865;50.918;4.510;2023-05-07T21:15:00;13.63;;;10.82;;
15526;SDS011;7865;50.918;4.510;2023-05-07T21:20:02;15.30;;;12.18;;
15526;SDS011;7865;50.918;4.510;2023-05-07T21:25:04;17.55;;;13.68;;
15526;SDS011;7865;50.918;4.510;2023-05-07T21:30:05;17.92;;;13.18;;
15526;SDS011;7865;50.918;4.510;2023-05-07T21:35:08;18.48;;;14.15;;
15526;SDS011;7865;50.918;4.510;2023-05-07T21:40:09;18.10;;;15.13;;
15526;SDS011;7865;50.918;4.510;2023-05-07T21:45:11;19.70;;;15.45;;
15526;SDS011;7865;50.918;4.510;2023-05-07T21:50:13;19.15;;;14.30;;
15526;SDS011;7865;50.918;4.510;2023-05-07T21:55:18;19.27;;;14.65;;
15526;SDS011;7865;50.918;4.510;2023-05-07T22:00:20;19.70;;;14.27;;
15526;SDS011;7865;50.918;4.510;2023-05-07T22:05:23;20.83;;;14.38;;
15526;SDS011;7865;50.918;4.510;2023-05-07T22:10:24;21.83;;;18.55;;
15526;SDS011;7865;50.918;4.510;2023-05-07T22:15:26;20.30;;;17.48;;
15526;SDS011;7865;50.918;4.510;2023-05-07T22:20:27;22.10;;;18.38;;
15526;SDS011;7865;50.918;4.510;2023-05-07T22:25:30;31.17;;;20.58;;
15526;SDS011;7865;50.918;4.510;2023-05-07T22:30:34;31.40;;;21.83;;
15526;SDS011;7865;50.918;4.510;2023-05-07T22:35:36;34.20;;;21.73;;
15526;SDS011;7865;50.918;4.510;2023-05-07T22:40:37;26.23;;;21.17;;
15526;SDS011;7865;50.918;4.510;2023-05-07T22:45:38;30.17;;;23.60;;
15526;SDS011;7865;50.918;4.510;2023-05-07T22:50:40;33.43;;;24.47;;
15526;SDS011;7865;50.918;4.510;2023-05-07T22:55:41;30.80;;;22.87;;
15526;SDS011;7865;50.918;4.510;2023-05-07T23:00:42;37.80;;;23.70;;
15526;SDS011;7865;50.918;4.510;2023-05-07T23:05:44;31.63;;;22.77;;
15526;SDS011;7865;50.918;4.510;2023-05-07T23:10:46;31.60;;;23.47;;
15526;SDS011;7865;50.918;4.510;2023-05-07T23:15:47;38.40;;;25.10;;
15526;SDS011;7865;50.918;4.510;2023-05-07T23:20:49;44.60;;;28.23;;
15526;SDS011;7865;50.918;4.510;2023-05-07T23:25:51;43.63;;;28.98;;
15526;SDS011;7865;50.918;4.510;2023-05-07T23:30:52;49.37;;;30.50;;
15526;SDS011;7865;50.918;4.510;2023-05-07T23:35:57;51.33;;;31.57;;
15526;SDS011;7865;50.918;4.510;2023-05-07T23:41:03;44.53;;;30.50;;
15526;SDS011;7865;50.918;4.510;2023-05-07T23:46:04;45.10;;;31.50;;
15526;SDS011;7865;50.918;4.510;2023-05-07T23:51:06;48.33;;;31.57;;
15526;SDS011;7865;50.918;4.510;2023-05-07T23:56:07;54.93;;;31.33;;
